Change the Weather History Date:

Wednesday, December 5, 2012

  Actual Average (KHOB) Record (KHOB)
Temperature  
Mean Temperature 50 °F -  
Max Temperature 68 °F 57 °F 75 °F (1998)
Min Temperature 32 °F 32 °F 15 °F (1950)
Degree Days  
Heating Degree Days 15    
Moisture  
Dew Point 26 °F    
Average Humidity 42    
Maximum Humidity 68    
Minimum Humidity 23    
Precipitation  
Precipitation 0.00 in - - ()
Sea Level Pressure  
Sea Level Pressure 30.18 in    
Wind  
Wind Speed 4 mph (SSW)    
Max Wind Speed 14 mph    
Max Gust Speed 21 mph    
Visibility 10 miles    
Events      
Averages and records for this station are not official NWS values.
T = Trace of Precipitation, MM = Missing Value Source: NWS Daily Summary

Daily Weather History Graph

Daily Weather History Graph

Search for Another Location

Airport or City:

Trip Planner

Search our weather history database for the weather conditions in past years. The results will help you decide how hot, cold, wet, or windy it might be!

Date:

Astronomy

Dec. 05, 2012 Rise Set
Actual Time 7:38 AM CST 5:44 PM CST
Civil Twilight 7:11 AM CST 6:11 PM CST
Nautical Twilight 6:40 AM CST 6:41 PM CST
Astronomical Twilight 6:11 AM CST 7:11 PM CST
Moon No Moon Rise 12:18 PM CST (12/5)
Length of Visible Light 10h 59m
Length of Day
10h 05m
Waning Gibbous, 59% of the Moon is Illuminated
Dec 5
Waning Gibbous
Dec 6
Last Quarter
Dec 13
New
Dec 19
First Quarter
Dec 28
Full

Hourly Weather History & Observations

Time (CST) Temp. Windchill Dew Point Humidity Pressure Visibility Wind Dir Wind Speed Gust Speed Precip Events Conditions
12:15 AM 41.2 °F - 22.1 °F 47% 30.34 in 10.0 mi Calm Calm - N/A   Clear
12:35 AM 41.0 °F 39.0 °F 22.3 °F 47% 30.34 in 10.0 mi WSW 3.5 mph - N/A   Clear
12:55 AM 39.9 °F - 22.1 °F 49% 30.33 in 10.0 mi Calm Calm - N/A   Clear
1:15 AM 38.8 °F - 22.1 °F 51% 30.34 in 10.0 mi Calm Calm - N/A   Clear
1:55 AM 36.1 °F - 22.5 °F 58% 30.33 in 10.0 mi Calm Calm - N/A   Clear
2:15 AM 36.7 °F - 22.3 °F 56% 30.33 in 10.0 mi Calm Calm - N/A   Clear
2:35 AM 36.7 °F - 22.5 °F 56% 30.33 in 10.0 mi Calm Calm - N/A   Clear
2:55 AM 36.1 °F - 22.8 °F 58% 30.33 in 10.0 mi Calm Calm - N/A   Clear
3:15 AM 36.1 °F - 22.6 °F 58% 30.33 in 10.0 mi Calm Calm - N/A   Clear
3:35 AM 36.0 °F - 22.8 °F 59% 30.32 in 10.0 mi Calm Calm - N/A   Clear
3:55 AM 35.6 °F - 22.8 °F 60% 30.31 in 10.0 mi Calm Calm - N/A   Clear
4:15 AM 35.6 °F 32.8 °F 23.0 °F 60% 30.31 in 10.0 mi NNW 3.5 mph - N/A   Clear
4:35 AM 34.9 °F - 22.6 °F 61% 30.30 in 10.0 mi Calm Calm - N/A   Clear
4:55 AM 35.6 °F - 23.0 °F 60% 30.30 in 10.0 mi Calm Calm - N/A   Clear
5:15 AM 36.0 °F - 23.0 °F 59% 30.29 in 10.0 mi Calm Calm - N/A   Clear
5:35 AM 34.5 °F - 22.3 °F 61% 30.29 in 10.0 mi Calm Calm - N/A   Clear
5:55 AM 34.2 °F - 22.3 °F 62% 30.29 in 10.0 mi Calm Calm - N/A   Clear
6:15 AM 33.8 °F - 22.1 °F 62% 30.29 in 10.0 mi Calm Calm - N/A   Clear
6:35 AM 32.2 °F - 22.1 °F 66% 30.30 in 10.0 mi Calm Calm - N/A   Clear
6:55 AM 32.0 °F - 22.6 °F 68% 30.30 in 10.0 mi Calm Calm - N/A   Clear
8:35 AM 37.9 °F - 24.1 °F 57% 30.30 in 10.0 mi Calm Calm - N/A   Clear
8:55 AM 40.3 °F - 24.4 °F 53% 30.31 in 10.0 mi Calm Calm - N/A   Clear
9:15 AM 43.9 °F 41.3 °F 24.3 °F 46% 30.31 in 10.0 mi South 4.6 mph - N/A   Clear
9:35 AM 47.1 °F - 23.7 °F 40% 30.30 in 10.0 mi South 5.8 mph - N/A   Clear
9:55 AM 50.5 °F - 22.6 °F 34% 30.30 in 10.0 mi South 10.4 mph - N/A   Clear
10:15 AM 52.2 °F - 23.0 °F 32% 30.30 in 10.0 mi South 8.1 mph - N/A   Clear
10:35 AM 54.0 °F - 23.2 °F 30% 30.29 in 10.0 mi South 11.5 mph - N/A   Clear
10:55 AM 56.3 °F - 23.0 °F 28% 30.28 in 10.0 mi South 11.5 mph - N/A   Clear
11:15 AM 57.6 °F - 22.8 °F 26% 30.27 in 10.0 mi South 11.5 mph - N/A   Clear
11:35 AM 58.6 °F - 24.6 °F 27% 30.26 in 10.0 mi SSW 12.7 mph - N/A   Clear
11:55 AM 59.9 °F - 25.5 °F 27% 30.25 in 10.0 mi South 12.7 mph 18.4 mph N/A   Clear
12:15 PM 61.0 °F - 26.6 °F 27% 30.23 in 10.0 mi SSW 13.8 mph - N/A   Clear
12:35 PM 61.9 °F - 27.1 °F 27% 30.21 in 10.0 mi South 11.5 mph 19.6 mph N/A   Clear
12:55 PM 63.1 °F - 27.9 °F 26% 30.18 in 10.0 mi SSW 12.7 mph 18.4 mph N/A   Clear
1:15 PM 64.6 °F - 28.0 °F 25% 30.17 in 10.0 mi SSW 9.2 mph - N/A   Clear
1:35 PM 65.5 °F - 28.4 °F 25% 30.16 in 10.0 mi South 13.8 mph - N/A   Clear
1:55 PM 66.0 °F - 29.1 °F 25% 30.15 in 10.0 mi South 12.7 mph - N/A   Clear
2:15 PM 66.2 °F - 29.1 °F 25% 30.13 in 10.0 mi SSW 13.8 mph 20.7 mph N/A   Clear
2:35 PM 65.5 °F - 28.6 °F 25% 30.11 in 10.0 mi South 12.7 mph - N/A   Clear
2:55 PM 66.6 °F - 28.9 °F 24% 30.10 in 10.0 mi South 13.8 mph 17.3 mph N/A   Clear
3:15 PM 67.5 °F - 28.8 °F 24% 30.09 in 10.0 mi SSW 13.8 mph - N/A   Clear
3:35 PM 67.8 °F - 28.9 °F 23% 30.08 in 10.0 mi SSW 13.8 mph 20.7 mph N/A   Clear
3:55 PM 68.2 °F - 28.9 °F 23% 30.08 in 10.0 mi South 11.5 mph - N/A   Clear
4:15 PM 68.0 °F - 29.3 °F 24% 30.07 in 10.0 mi SSW 12.7 mph - N/A   Clear
4:35 PM 67.6 °F - 29.3 °F 24% 30.07 in 10.0 mi SSW 11.5 mph 17.3 mph N/A   Clear
4:55 PM 67.1 °F - 29.3 °F 24% 30.06 in 10.0 mi SSW 10.4 mph - N/A   Clear
5:15 PM 66.0 °F - 29.3 °F 25% 30.06 in 10.0 mi SSW 10.4 mph - N/A   Clear
5:35 PM 64.0 °F - 29.5 °F 27% 30.05 in 10.0 mi SSW 8.1 mph - N/A   Clear
5:55 PM 61.3 °F - 29.3 °F 30% 30.05 in 10.0 mi SSW 8.1 mph - N/A   Clear
6:15 PM 59.5 °F - 29.5 °F 32% 30.05 in 10.0 mi SSW 6.9 mph - N/A   Clear
6:35 PM 57.2 °F - 29.1 °F 34% 30.05 in 10.0 mi SSW 6.9 mph - N/A   Clear
6:55 PM 54.9 °F - 28.9 °F 37% 30.05 in 10.0 mi South 4.6 mph - N/A   Clear
7:15 PM 53.4 °F - 28.9 °F 39% 30.04 in 10.0 mi SSW 4.6 mph - N/A   Clear
7:35 PM 51.8 °F - 28.9 °F 41% 30.04 in 10.0 mi South 5.8 mph - N/A   Clear
7:55 PM 50.7 °F - 28.6 °F 42% 30.04 in 10.0 mi South 6.9 mph - N/A   Clear
8:15 PM 49.1 °F - 28.2 °F 44% 30.04 in 10.0 mi South 6.9 mph - N/A   Clear
8:35 PM 48.2 °F - 27.7 °F 45% 30.03 in 10.0 mi SSW 6.9 mph - N/A   Clear
8:55 PM 48.4 °F - 27.7 °F 45% 30.03 in 10.0 mi SSW 5.8 mph - N/A   Clear
9:15 PM 47.7 °F - 27.5 °F 46% 30.03 in 10.0 mi SSW 5.8 mph - N/A   Clear
9:35 PM 47.5 °F - 27.5 °F 46% 30.03 in 10.0 mi SW 5.8 mph - N/A   Clear
9:55 PM 47.1 °F - 27.9 °F 47% 30.02 in 10.0 mi SW 4.6 mph - N/A   Clear
10:15 PM 45.9 °F 43.6 °F 27.9 °F 49% 30.01 in 10.0 mi SW 4.6 mph - N/A   Clear
10:35 PM 45.7 °F 42.7 °F 28.0 °F 50% 30.01 in 10.0 mi SW 5.8 mph - N/A   Clear
10:55 PM 45.7 °F 42.7 °F 28.2 °F 51% 30.01 in 10.0 mi SSW 5.8 mph - N/A   Clear
11:15 PM 45.3 °F 42.3 °F 28.0 °F 51% 30.00 in 10.0 mi SSW 5.8 mph - N/A   Clear
11:35 PM 44.6 °F 41.4 °F 28.6 °F 53% 30.00 in 10.0 mi SW 5.8 mph - N/A   Clear
11:55 PM 44.1 °F 41.5 °F 28.6 °F 55% 29.99 in 7.0 mi WSW 4.6 mph - N/A   Clear